createdAt,value
2022-08-04T00:00:46.588Z,24.68
2022-08-04T00:03:20.667Z,24.63
2022-08-04T00:05:59.291Z,24.54
2022-08-04T00:08:38.294Z,24.63
2022-08-04T00:11:15.419Z,24.74
2022-08-04T00:14:02.861Z,24.57
2022-08-04T00:16:38.630Z,24.51
2022-08-04T00:19:12.882Z,24.47
2022-08-04T00:21:48.367Z,24.45
2022-08-04T00:24:17.598Z,24.52
2022-08-04T00:26:46.849Z,24.36
2022-08-04T00:29:16.894Z,24.42
2022-08-04T00:31:57.019Z,24.28
2022-08-04T00:34:28.119Z,24.18
2022-08-04T00:36:58.398Z,24.17
2022-08-04T00:39:28.039Z,24.24
2022-08-04T00:42:34.409Z,24.12
2022-08-04T00:46:10.957Z,24.04
2022-08-04T00:48:48.996Z,24.00
2022-08-04T00:51:27.617Z,23.84
2022-08-04T00:54:03.235Z,23.81
2022-08-04T00:57:04.624Z,23.83
2022-08-04T00:59:44.084Z,23.82
2022-08-04T01:02:22.999Z,23.76
2022-08-04T01:04:59.787Z,23.58
2022-08-04T01:07:42.489Z,23.76
2022-08-04T01:10:17.551Z,23.64
2022-08-04T01:13:00.578Z,23.73
2022-08-04T01:15:59.763Z,23.65
2022-08-04T01:18:34.776Z,23.65
2022-08-04T01:21:34.222Z,23.67
2022-08-04T01:24:27.694Z,23.55
2022-08-04T01:27:02.048Z,23.43
2022-08-04T01:29:46.918Z,23.48
2022-08-04T01:32:26.145Z,23.54
2022-08-04T01:35:00.693Z,23.47
2022-08-04T01:37:40.779Z,23.55
2022-08-04T01:40:10.176Z,23.51
2022-08-04T01:42:40.306Z,23.47
2022-08-04T01:45:13.441Z,23.53
2022-08-04T01:47:50.871Z,23.51
2022-08-04T01:50:19.642Z,23.54
2022-08-04T01:52:51.283Z,23.48
2022-08-04T01:55:20.493Z,23.53
2022-08-04T01:57:51.054Z,23.58
2022-08-04T02:00:23.496Z,23.77
2022-08-04T02:02:52.489Z,23.64
2022-08-04T02:05:22.939Z,23.63
2022-08-04T02:08:00.555Z,23.82
2022-08-04T02:10:31.287Z,23.72
2022-08-04T02:13:18.116Z,23.75
2022-08-04T02:15:57.030Z,23.92
2022-08-04T02:18:29.551Z,23.85
2022-08-04T02:21:00.238Z,23.82
2022-08-04T02:23:32.936Z,23.85
2022-08-04T02:26:03.693Z,23.90
2022-08-04T02:28:37.248Z,23.79
2022-08-04T02:31:16.755Z,23.74
2022-08-04T02:33:46.767Z,23.88
2022-08-04T02:36:19.600Z,23.77
2022-08-04T02:38:57.073Z,23.64
2022-08-04T02:41:27.503Z,23.71
2022-08-04T02:43:58.064Z,23.77
2022-08-04T02:46:28.927Z,23.68
2022-08-04T02:48:57.990Z,23.82
2022-08-04T02:51:29.741Z,23.76
2022-08-04T02:53:59.874Z,23.67
2022-08-04T02:56:31.568Z,23.80
2022-08-04T02:59:02.460Z,23.64
2022-08-04T03:01:33.318Z,23.57
2022-08-04T03:04:24.487Z,23.76
2022-08-04T03:07:18.176Z,23.76
2022-08-04T03:10:11.587Z,23.90
2022-08-04T03:12:59.265Z,23.75
2022-08-04T03:15:49.704Z,23.82
2022-08-04T03:18:44.343Z,23.77
2022-08-04T03:21:44.692Z,23.90
2022-08-04T03:24:50.997Z,23.97
2022-08-04T03:27:47.503Z,23.80
2022-08-04T03:30:17.520Z,23.85
2022-08-04T03:33:16.583Z,23.66
2022-08-04T03:39:10.245Z,23.82
2022-08-04T03:42:08.382Z,23.95
2022-08-04T03:44:55.558Z,23.83
2022-08-04T03:47:44.647Z,23.88
2022-08-04T03:50:26.115Z,23.79
2022-08-04T03:53:09.932Z,23.90
2022-08-04T03:56:16.226Z,23.99
2022-08-04T03:59:23.965Z,24.11
2022-08-04T04:02:29.262Z,24.13
2022-08-04T04:05:10.490Z,24.37
2022-08-04T04:07:58.119Z,24.15
2022-08-04T04:10:53.920Z,24.40
2022-08-04T04:13:55.689Z,24.45
2022-08-04T04:16:34.189Z,24.43
2022-08-04T04:19:29.513Z,24.53
2022-08-04T04:22:09.411Z,24.48
2022-08-04T04:25:00.312Z,24.65
2022-08-04T04:27:39.266Z,24.44
2022-08-04T04:30:10.084Z,24.75
2022-08-04T04:33:07.840Z,24.60
2022-08-04T04:35:43.117Z,24.53
2022-08-04T04:38:57.941Z,24.71
2022-08-04T04:41:38.073Z,24.87
2022-08-04T04:44:17.006Z,24.88
2022-08-04T04:46:50.255Z,24.96
2022-08-04T04:49:27.145Z,24.90
2022-08-04T04:52:02.235Z,25.11
2022-08-04T04:54:35.892Z,25.19
2022-08-04T04:57:08.702Z,25.16
2022-08-04T04:59:40.702Z,25.13
2022-08-04T05:02:43.241Z,25.21
2022-08-04T05:05:46.880Z,25.24
2022-08-04T05:08:43.239Z,25.34
2022-08-04T05:11:42.863Z,25.49
2022-08-04T05:14:38.146Z,25.98
2022-08-04T05:17:22.977Z,26.44
2022-08-04T05:20:01.153Z,27.15
2022-08-04T05:22:36.805Z,27.87
2022-08-04T05:25:09.321Z,27.89
2022-08-04T05:27:41.064Z,27.66
2022-08-04T05:30:11.016Z,27.22
2022-08-04T05:32:47.964Z,27.34
2022-08-04T05:35:47.779Z,28.04
2022-08-04T05:38:16.030Z,28.53
2022-08-04T05:40:45.132Z,28.52
2022-08-04T05:43:16.250Z,28.81
2022-08-04T05:45:48.262Z,28.74
2022-08-04T05:48:17.859Z,29.14
2022-08-04T05:50:47.759Z,29.14
2022-08-04T05:53:18.242Z,29.34
2022-08-04T05:55:57.542Z,29.20
2022-08-04T05:58:30.009Z,28.95
2022-08-04T06:01:00.269Z,29.29
2022-08-04T06:03:30.837Z,29.37
2022-08-04T06:05:59.971Z,29.35
2022-08-04T06:08:30.609Z,29.14
2022-08-04T06:11:03.573Z,29.49
2022-08-04T06:13:48.532Z,29.29
2022-08-04T06:16:29.605Z,28.68
2022-08-04T06:20:02.308Z,28.87
2022-08-04T06:21:52.758Z,28.64
2022-08-04T06:24:25.519Z,28.13
2022-08-04T06:26:54.889Z,28.02
2022-08-04T06:29:28.366Z,27.96
2022-08-04T06:32:30.444Z,27.95
2022-08-04T06:34:53.651Z,27.78
2022-08-04T06:37:24.077Z,28.11
2022-08-04T06:40:29.474Z,27.77
2022-08-04T06:43:01.733Z,27.70
2022-08-04T06:45:31.123Z,27.77
2022-08-04T06:48:00.572Z,27.81
2022-08-04T06:51:27.411Z,27.95
2022-08-04T06:53:18.772Z,27.81
2022-08-04T06:55:49.933Z,28.06
2022-08-04T06:58:19.004Z,27.92
2022-08-04T07:00:48.601Z,27.97
2022-08-04T07:03:21.639Z,28.14
2022-08-04T07:05:51.128Z,28.19
2022-08-04T07:08:20.519Z,28.21
2022-08-04T07:10:50.951Z,28.01
2022-08-04T07:13:19.661Z,28.09
2022-08-04T07:15:48.899Z,28.47
2022-08-04T07:18:27.893Z,28.29
2022-08-04T07:20:56.906Z,28.05
2022-08-04T07:23:26.504Z,28.25
2022-08-04T07:26:12.676Z,28.32
2022-08-04T07:28:42.666Z,28.41
2022-08-04T07:31:33.852Z,28.88
2022-08-04T07:34:17.262Z,28.55
2022-08-04T07:36:51.295Z,28.71
2022-08-04T07:39:29.021Z,28.93
2022-08-04T07:42:02.191Z,28.47
2022-08-04T07:44:32.757Z,28.61
2022-08-04T07:47:01.802Z,28.99
2022-08-04T07:49:54.811Z,29.06
2022-08-04T07:52:19.765Z,29.12
2022-08-04T07:54:51.792Z,29.12
2022-08-04T07:57:40.610Z,29.24
2022-08-04T08:00:11.986Z,29.05
2022-08-04T08:02:41.381Z,29.28
2022-08-04T08:05:12.119Z,29.48
2022-08-04T08:07:50.738Z,29.76
2022-08-04T08:10:24.213Z,29.92
2022-08-04T08:12:55.088Z,29.77
2022-08-04T08:15:23.808Z,29.69
2022-08-04T08:17:58.250Z,29.73
2022-08-04T08:20:31.101Z,29.85
2022-08-04T08:23:00.627Z,29.78
2022-08-04T08:25:31.283Z,29.96
2022-08-04T08:28:01.444Z,29.93
2022-08-04T08:30:31.617Z,29.88
2022-08-04T08:33:03.953Z,30.50
2022-08-04T08:35:49.310Z,30.58
2022-08-04T08:38:34.559Z,30.53
2022-08-04T08:41:20.814Z,30.72
2022-08-04T08:44:07.702Z,30.71
2022-08-04T08:46:52.133Z,30.83
2022-08-04T08:50:02.847Z,30.79
2022-08-04T08:53:02.593Z,31.10
2022-08-04T08:55:44.247Z,31.25
2022-08-04T08:58:27.918Z,31.37
2022-08-04T09:01:12.153Z,31.43
2022-08-04T09:03:57.728Z,31.38
2022-08-04T09:06:38.450Z,31.65
2022-08-04T09:09:40.770Z,31.79
2022-08-04T09:12:14.125Z,32.10
2022-08-04T09:14:46.681Z,32.19
2022-08-04T09:17:23.844Z,31.89
2022-08-04T09:19:56.767Z,31.94
2022-08-04T09:22:33.103Z,32.01
2022-08-04T09:25:06.758Z,32.15
2022-08-04T09:27:41.241Z,32.31
2022-08-04T09:30:12.489Z,32.44
2022-08-04T09:32:48.859Z,32.60
2022-08-04T09:35:25.376Z,32.71
2022-08-04T09:38:08.946Z,32.91
2022-08-04T09:40:55.206Z,33.00
2022-08-04T09:43:59.047Z,32.89
2022-08-04T09:46:28.215Z,32.64
2022-08-04T09:49:03.130Z,33.07
2022-08-04T09:51:58.170Z,32.51
2022-08-04T09:54:34.308Z,32.80
2022-08-04T09:57:10.581Z,33.00
2022-08-04T09:59:44.492Z,32.95
2022-08-04T10:02:15.274Z,32.93
2022-08-04T10:04:46.784Z,33.23
2022-08-04T10:07:24.278Z,33.23
2022-08-04T10:10:08.754Z,33.33
2022-08-04T10:12:45.525Z,33.31
2022-08-04T10:15:18.725Z,33.23
2022-08-04T10:18:03.114Z,33.35
2022-08-04T10:20:47.094Z,33.23
2022-08-04T10:23:25.462Z,33.53
2022-08-04T10:26:07.344Z,33.19
2022-08-04T10:28:42.650Z,33.62
2022-08-04T10:31:14.848Z,33.75
2022-08-04T10:33:49.666Z,33.69
2022-08-04T10:36:23.937Z,33.32
2022-08-04T10:38:58.865Z,33.67
2022-08-04T10:41:34.322Z,32.78
2022-08-04T10:44:13.548Z,33.05
2022-08-04T10:46:46.536Z,33.50
2022-08-04T10:49:23.566Z,33.27
2022-08-04T10:51:59.857Z,33.36
2022-08-04T10:54:34.198Z,33.73
2022-08-04T10:57:08.156Z,34.20
2022-08-04T10:59:46.975Z,34.41
2022-08-04T11:02:26.503Z,34.80
2022-08-04T11:05:02.791Z,34.91
2022-08-04T11:07:34.609Z,35.03
2022-08-04T11:10:03.754Z,34.94
2022-08-04T11:12:36.564Z,34.88
2022-08-04T11:15:08.404Z,34.37
2022-08-04T11:17:40.139Z,34.69
2022-08-04T11:23:11.405Z,35.02
2022-08-04T11:25:52.704Z,35.47
2022-08-04T11:28:32.387Z,35.60
2022-08-04T11:31:05.770Z,35.36
2022-08-04T11:33:41.291Z,35.44
2022-08-04T11:36:15.957Z,34.74
2022-08-04T11:38:52.209Z,35.17
2022-08-04T11:41:24.675Z,35.79
2022-08-04T11:44:02.418Z,35.81
2022-08-04T11:46:38.225Z,36.51
2022-08-04T11:49:09.130Z,36.64
2022-08-04T11:51:38.030Z,36.95
2022-08-04T11:54:08.418Z,37.11
2022-08-04T11:56:38.061Z,37.12
2022-08-04T11:59:08.640Z,36.99
2022-08-04T12:01:51.394Z,36.72
2022-08-04T12:04:27.046Z,35.76
2022-08-04T12:07:21.730Z,35.63
2022-08-04T12:09:56.398Z,36.03
2022-08-04T12:12:29.572Z,36.22
2022-08-04T12:15:03.954Z,36.69
2022-08-04T12:17:52.724Z,37.00
2022-08-04T12:20:35.564Z,37.08
2022-08-04T12:23:16.457Z,37.44
2022-08-04T12:25:49.209Z,37.62
2022-08-04T12:28:23.445Z,38.00
2022-08-04T12:31:00.428Z,38.18
2022-08-04T12:34:03.817Z,38.21
2022-08-04T12:36:31.194Z,37.96
2022-08-04T12:39:02.783Z,38.65
2022-08-04T12:41:39.919Z,38.90
2022-08-04T12:44:36.192Z,38.74
2022-08-04T12:47:27.131Z,38.63
2022-08-04T12:50:00.461Z,38.71
2022-08-04T12:52:59.081Z,38.65
2022-08-04T12:55:26.348Z,38.59
2022-08-04T12:57:56.973Z,38.20
2022-08-04T13:00:31.006Z,38.19
2022-08-04T13:03:09.582Z,37.89
2022-08-04T13:05:40.699Z,37.83
2022-08-04T13:08:10.743Z,38.03
2022-08-04T13:10:41.353Z,38.30
2022-08-04T13:13:17.371Z,38.78
2022-08-04T13:15:57.035Z,38.80
2022-08-04T13:18:30.298Z,39.25
2022-08-04T13:24:20.585Z,39.66
2022-08-04T13:26:56.094Z,39.86
2022-08-04T13:30:00.715Z,39.23
2022-08-04T13:30:24.152Z,39.75
2022-08-04T13:32:22.527Z,39.29
2022-08-04T13:34:57.135Z,39.05
2022-08-04T13:37:28.019Z,38.64
2022-08-04T13:39:58.709Z,38.44
2022-08-04T13:42:27.938Z,38.73
2022-08-04T13:45:01.419Z,39.02
2022-08-04T13:47:33.508Z,38.85
2022-08-04T13:50:18.137Z,38.36
2022-08-04T13:52:48.394Z,38.67
2022-08-04T13:55:25.308Z,39.10
2022-08-04T13:58:06.808Z,38.97
2022-08-04T14:00:44.662Z,39.38
2022-08-04T14:03:24.340Z,39.80
2022-08-04T14:06:20.100Z,39.95
2022-08-04T14:08:51.299Z,40.24
2022-08-04T14:12:09.636Z,40.63
2022-08-04T14:14:18.944Z,40.70
2022-08-04T14:17:16.279Z,40.98
2022-08-04T14:19:54.513Z,40.50
2022-08-04T14:22:34.632Z,40.96
2022-08-04T14:25:07.387Z,40.95
2022-08-04T14:27:44.325Z,41.04
2022-08-04T14:30:27.426Z,41.25
2022-08-04T14:34:00.924Z,41.46
2022-08-04T14:35:59.489Z,41.74
2022-08-04T14:38:47.655Z,42.03
2022-08-04T14:41:17.967Z,41.84
2022-08-04T14:43:48.360Z,41.50
2022-08-04T14:46:17.475Z,41.62
2022-08-04T14:49:10.236Z,41.78
2022-08-04T14:51:41.884Z,41.58
2022-08-04T14:54:17.271Z,41.39
2022-08-04T14:56:53.238Z,41.78
2022-08-04T14:59:22.667Z,42.09
2022-08-04T15:02:00.141Z,42.20
2022-08-04T15:04:34.044Z,42.29
2022-08-04T15:07:04.532Z,42.10
2022-08-04T15:09:33.607Z,42.40
2022-08-04T15:12:04.296Z,42.50
2022-08-04T15:14:37.729Z,42.53
2022-08-04T15:17:12.448Z,42.70
2022-08-04T15:19:58.257Z,42.67
2022-08-04T15:22:27.094Z,42.75
2022-08-04T15:24:56.213Z,42.99
2022-08-04T15:27:26.666Z,42.87
2022-08-04T15:30:00.059Z,42.52
2022-08-04T15:32:31.954Z,42.79
2022-08-04T15:35:06.661Z,42.69
2022-08-04T15:37:40.954Z,42.51
2022-08-04T15:40:13.094Z,42.46
2022-08-04T15:42:47.486Z,42.37
2022-08-04T15:45:22.014Z,42.31
2022-08-04T15:48:28.369Z,42.10
2022-08-04T15:51:31.946Z,42.28
2022-08-04T15:54:30.802Z,42.17
2022-08-04T15:57:04.014Z,42.10
2022-08-04T15:59:59.850Z,41.97
2022-08-04T16:02:43.589Z,41.93
2022-08-04T16:05:36.959Z,42.04
2022-08-04T16:08:28.475Z,41.88
2022-08-04T16:10:57.642Z,41.65
2022-08-04T16:13:26.230Z,41.24
2022-08-04T16:15:55.993Z,41.05
2022-08-04T16:18:43.643Z,41.06
2022-08-04T16:21:23.324Z,40.67
2022-08-04T16:24:06.138Z,40.84
2022-08-04T16:26:54.312Z,40.87
2022-08-04T16:29:43.886Z,40.88
2022-08-04T16:32:17.745Z,40.74
2022-08-04T16:34:56.411Z,40.45
2022-08-04T16:37:31.454Z,39.97
2022-08-04T16:40:36.943Z,39.65
2022-08-04T16:43:13.072Z,39.24
2022-08-04T16:46:00.867Z,38.86
2022-08-04T16:48:30.558Z,38.48
2022-08-04T16:51:03.322Z,38.26
2022-08-04T16:53:52.514Z,37.98
2022-08-04T16:56:30.337Z,37.64
2022-08-04T16:59:10.246Z,37.22
2022-08-04T17:01:40.273Z,36.94
2022-08-04T17:04:08.930Z,36.48
2022-08-04T17:06:39.925Z,36.45
2022-08-04T17:09:12.782Z,35.88
2022-08-04T17:11:43.728Z,35.76
2022-08-04T17:14:12.812Z,35.57
2022-08-04T17:16:43.199Z,35.47
2022-08-04T17:19:23.802Z,35.25
2022-08-04T17:22:03.044Z,35.02
2022-08-04T17:24:34.168Z,34.97
2022-08-04T17:28:19.029Z,34.77
2022-08-04T17:29:53.037Z,34.61
2022-08-04T17:32:23.089Z,34.36
2022-08-04T17:34:53.066Z,34.23
2022-08-04T17:37:52.830Z,34.09
2022-08-04T17:40:17.997Z,34.03
2022-08-04T17:42:48.544Z,33.93
2022-08-04T17:48:10.025Z,33.67
2022-08-04T17:50:43.353Z,33.50
2022-08-04T17:53:13.513Z,33.29
2022-08-04T17:55:43.412Z,33.20
2022-08-04T17:58:20.817Z,33.06
2022-08-04T18:01:22.651Z,32.93
2022-08-04T18:03:52.791Z,32.77
2022-08-04T18:06:23.170Z,32.64
2022-08-04T18:08:58.901Z,32.38
2022-08-04T18:11:41.309Z,32.30
2022-08-04T18:14:15.563Z,32.18
2022-08-04T18:16:45.030Z,32.18
2022-08-04T18:19:15.649Z,32.09
2022-08-04T18:21:59.828Z,31.90
2022-08-04T18:27:26.005Z,31.65
2022-08-04T18:30:34.124Z,31.53
2022-08-04T18:33:16.756Z,31.43
2022-08-04T18:36:32.843Z,31.36
2022-08-04T18:38:30.000Z,31.21
2022-08-04T18:40:59.025Z,31.11
2022-08-04T18:43:30.271Z,31.03
2022-08-04T18:46:14.600Z,30.95
2022-08-04T18:48:52.283Z,30.94
2022-08-04T18:51:23.683Z,30.76
2022-08-04T18:53:59.244Z,30.77
2022-08-04T18:56:32.563Z,30.70
2022-08-04T18:59:03.076Z,30.69
2022-08-04T19:02:12.382Z,30.59
2022-08-04T19:04:33.655Z,30.51
2022-08-04T19:07:29.066Z,30.32
2022-08-04T19:09:57.982Z,30.33
2022-08-04T19:12:28.399Z,30.27
2022-08-04T19:15:08.033Z,30.17
2022-08-04T19:17:53.674Z,30.13
2022-08-04T19:20:27.179Z,30.04
2022-08-04T19:24:26.222Z,30.05
2022-08-04T19:25:59.149Z,30.00
2022-08-04T19:28:34.822Z,29.88
2022-08-04T19:31:05.457Z,29.81
2022-08-04T19:33:59.383Z,29.54
2022-08-04T19:36:28.892Z,29.55
2022-08-04T19:38:59.435Z,29.44
2022-08-04T19:41:31.986Z,29.44
2022-08-04T19:44:01.113Z,29.32
2022-08-04T19:46:30.029Z,29.31
2022-08-04T19:49:03.115Z,29.27
2022-08-04T19:51:33.121Z,28.96
2022-08-04T19:54:04.327Z,29.05
2022-08-04T19:56:46.740Z,29.08
2022-08-04T19:59:17.623Z,28.74
2022-08-04T20:01:46.632Z,28.60
2022-08-04T20:04:17.045Z,28.71
2022-08-04T20:06:45.850Z,28.75
2022-08-04T20:09:24.558Z,28.70
2022-08-04T20:11:56.612Z,28.84
2022-08-04T20:14:32.090Z,28.62
2022-08-04T20:17:09.963Z,28.61
2022-08-04T20:19:41.228Z,28.48
2022-08-04T20:25:10.971Z,28.35
2022-08-04T20:27:59.406Z,28.37
2022-08-04T20:30:29.649Z,28.50
2022-08-04T20:33:00.297Z,28.32
2022-08-04T20:35:30.853Z,28.17
2022-08-04T20:38:01.439Z,28.23
2022-08-04T20:40:30.625Z,28.14
2022-08-04T20:43:00.656Z,28.13
2022-08-04T20:45:56.620Z,27.89
2022-08-04T20:48:18.231Z,27.98
2022-08-04T20:50:48.892Z,27.86
2022-08-04T20:53:17.750Z,27.77
2022-08-04T20:55:55.034Z,27.85
2022-08-04T21:01:14.618Z,27.62
2022-08-04T21:04:01.195Z,27.63
2022-08-04T21:06:31.104Z,27.53
2022-08-04T21:08:59.949Z,27.43
2022-08-04T21:11:38.311Z,27.43
2022-08-04T21:14:11.992Z,27.48
2022-08-04T21:16:53.948Z,27.26
2022-08-04T21:19:26.937Z,27.34
2022-08-04T21:21:56.851Z,27.38
2022-08-04T21:24:27.121Z,27.38
2022-08-04T21:26:57.601Z,27.31
2022-08-04T21:29:29.641Z,27.32
2022-08-04T21:32:05.722Z,27.13
2022-08-04T21:34:39.011Z,27.27
2022-08-04T21:37:24.826Z,27.07
2022-08-04T21:40:09.122Z,27.05
2022-08-04T21:42:50.122Z,27.01
2022-08-04T21:45:22.558Z,26.97
2022-08-04T21:47:51.439Z,26.77
2022-08-04T21:50:20.443Z,26.76
2022-08-04T21:52:50.874Z,26.71
2022-08-04T21:55:21.898Z,26.76
2022-08-04T21:57:54.116Z,26.78
2022-08-04T22:00:22.986Z,26.72
2022-08-04T22:02:53.867Z,26.71
2022-08-04T22:05:22.540Z,26.46
2022-08-04T22:07:52.912Z,26.54
2022-08-04T22:10:32.174Z,26.59
2022-08-04T22:13:06.771Z,26.45
2022-08-04T22:16:03.717Z,26.50
2022-08-04T22:18:27.839Z,26.44
2022-08-04T22:20:56.794Z,26.55
2022-08-04T22:23:28.257Z,26.43
2022-08-04T22:25:58.412Z,26.40
2022-08-04T22:28:28.495Z,26.45
2022-08-04T22:30:58.272Z,26.51
2022-08-04T22:33:54.558Z,26.51
2022-08-04T22:36:17.293Z,26.41
2022-08-04T22:38:54.976Z,26.41
2022-08-04T22:41:34.387Z,26.42
2022-08-04T22:44:17.288Z,26.30
2022-08-04T22:46:49.631Z,26.27
2022-08-04T22:49:18.216Z,26.37
2022-08-04T22:51:54.170Z,26.40
2022-08-04T22:54:28.475Z,26.27
2022-08-04T22:56:58.693Z,26.32
2022-08-04T22:59:28.931Z,26.21
2022-08-04T23:02:00.536Z,26.14
2022-08-04T23:04:31.362Z,26.28
2022-08-04T23:07:09.267Z,26.17
2022-08-04T23:09:49.960Z,26.10
2022-08-04T23:12:25.906Z,26.11
2022-08-04T23:14:56.127Z,26.11
2022-08-04T23:17:27.244Z,25.95
2022-08-04T23:19:57.805Z,26.05
2022-08-04T23:22:37.439Z,25.90
2022-08-04T23:25:16.288Z,25.94
2022-08-04T23:27:52.221Z,25.93
2022-08-04T23:30:24.420Z,25.93
2022-08-04T23:32:54.168Z,26.08
2022-08-04T23:35:23.229Z,25.99
2022-08-04T23:37:57.877Z,25.93
2022-08-04T23:40:34.407Z,25.99
2022-08-04T23:43:18.886Z,26.05
2022-08-04T23:46:05.010Z,26.02
2022-08-04T23:48:38.900Z,25.89
2022-08-04T23:51:14.799Z,26.00
2022-08-04T23:54:01.835Z,26.12
2022-08-04T23:56:34.772Z,25.95
2022-08-04T23:59:04.532Z,25.89
